createdAt,value
2017-08-25T00:00:57.203Z,79.1
2017-08-25T00:01:58.574Z,79.0
2017-08-25T00:02:59.948Z,79.1
2017-08-25T00:04:01.328Z,78.8
2017-08-25T00:05:02.700Z,79.1
2017-08-25T00:06:04.072Z,79.1
2017-08-25T00:07:05.446Z,79.3
2017-08-25T00:08:06.821Z,79.6
2017-08-25T00:09:08.192Z,79.5
2017-08-25T00:10:09.566Z,79.9
2017-08-25T00:11:10.950Z,80.0
2017-08-25T00:12:12.326Z,79.9
2017-08-25T00:13:13.695Z,80.2
2017-08-25T00:14:15.067Z,79.5
2017-08-25T00:15:16.442Z,79.7
2017-08-25T00:16:17.818Z,79.8
2017-08-25T00:17:19.191Z,80.1
2017-08-25T00:18:20.568Z,80.4
2017-08-25T00:19:21.939Z,80.3
2017-08-25T00:20:23.310Z,80.2
2017-08-25T00:21:24.682Z,80.2
2017-08-25T00:22:26.063Z,80.0
2017-08-25T00:23:27.435Z,80.1
2017-08-25T00:24:28.813Z,80.4
2017-08-25T00:25:30.188Z,80.1
2017-08-25T00:26:31.560Z,80.0
2017-08-25T00:27:32.933Z,80.1
2017-08-25T00:28:34.304Z,79.9
2017-08-25T00:29:35.675Z,80.1
2017-08-25T00:30:37.052Z,79.7
2017-08-25T00:31:38.427Z,79.7
2017-08-25T00:32:39.805Z,79.7
2017-08-25T00:33:41.178Z,79.6
2017-08-25T00:34:42.548Z,80.0
2017-08-25T00:35:43.925Z,79.8
2017-08-25T00:36:45.333Z,79.8
2017-08-25T00:37:46.704Z,80.4
2017-08-25T00:38:48.075Z,80.0
2017-08-25T00:39:49.455Z,80.1
2017-08-25T00:40:50.832Z,80.3
2017-08-25T00:41:52.201Z,80.4
2017-08-25T00:42:53.574Z,80.4
2017-08-25T00:43:54.945Z,80.3
2017-08-25T00:44:56.318Z,80.1
2017-08-25T00:45:57.693Z,81.0
2017-08-25T00:46:59.069Z,81.0
2017-08-25T00:48:00.437Z,80.3
2017-08-25T00:49:01.810Z,80.9
2017-08-25T00:50:03.182Z,80.6
2017-08-25T00:51:04.560Z,80.6
2017-08-25T00:52:06.013Z,80.8
2017-08-25T00:53:07.392Z,81.0
2017-08-25T00:54:08.763Z,80.8
2017-08-25T00:55:10.136Z,80.7
2017-08-25T00:56:11.513Z,81.0
2017-08-25T00:57:12.883Z,81.0
2017-08-25T00:58:14.257Z,79.8
2017-08-25T00:59:15.630Z,80.3
2017-08-25T01:00:17.006Z,79.9
2017-08-25T01:01:18.381Z,80.8
2017-08-25T01:02:19.755Z,80.2
2017-08-25T01:03:21.129Z,80.6
2017-08-25T01:04:22.498Z,81.0
2017-08-25T01:05:23.882Z,80.7
2017-08-25T01:06:25.253Z,80.8
2017-08-25T01:07:26.629Z,80.8
2017-08-25T01:08:28.003Z,80.4
2017-08-25T01:09:29.377Z,80.4
2017-08-25T01:10:30.750Z,80.8
2017-08-25T01:11:32.120Z,80.8
2017-08-25T01:12:33.495Z,80.8
2017-08-25T01:13:34.867Z,81.0
2017-08-25T01:14:36.242Z,80.6
2017-08-25T01:15:37.618Z,80.7
2017-08-25T01:16:38.990Z,80.6
2017-08-25T01:17:40.372Z,80.7
2017-08-25T01:18:41.744Z,81.0
2017-08-25T01:19:43.119Z,80.7
2017-08-25T01:20:44.491Z,80.6
2017-08-25T01:21:45.880Z,80.7
2017-08-25T01:22:47.253Z,81.2
2017-08-25T01:23:48.626Z,81.1
2017-08-25T01:24:49.996Z,80.7
2017-08-25T01:25:51.376Z,81.0
2017-08-25T01:26:52.748Z,80.9
2017-08-25T01:27:54.120Z,80.8
2017-08-25T01:28:55.494Z,80.7
2017-08-25T01:29:56.882Z,80.9
2017-08-25T01:30:58.256Z,80.8
2017-08-25T01:31:59.628Z,80.5
2017-08-25T01:33:01.005Z,80.7
2017-08-25T01:34:02.378Z,80.8
2017-08-25T01:35:03.756Z,80.8
2017-08-25T01:36:05.133Z,81.0
2017-08-25T01:37:06.508Z,80.8
2017-08-25T01:38:07.882Z,81.0
2017-08-25T01:39:09.254Z,80.8
2017-08-25T01:40:10.622Z,80.6
2017-08-25T01:41:12.000Z,80.6
2017-08-25T01:42:13.376Z,80.5
2017-08-25T01:43:14.747Z,80.7
2017-08-25T01:44:16.121Z,81.0
2017-08-25T01:45:17.490Z,80.7
2017-08-25T01:46:18.860Z,80.7
2017-08-25T01:47:20.241Z,80.9
2017-08-25T01:48:21.614Z,80.7
2017-08-25T01:49:22.986Z,80.7
2017-08-25T01:50:24.359Z,80.7
2017-08-25T01:51:25.736Z,80.6
2017-08-25T01:52:27.104Z,80.6
2017-08-25T01:53:28.479Z,81.0
2017-08-25T01:54:29.870Z,81.0
2017-08-25T01:55:31.227Z,81.0
2017-08-25T01:56:32.602Z,81.2
2017-08-25T01:57:33.989Z,81.8
2017-08-25T01:58:35.354Z,81.7
2017-08-25T01:59:36.726Z,81.4
2017-08-25T02:00:38.097Z,81.4
2017-08-25T02:01:39.471Z,81.8
2017-08-25T02:02:40.848Z,82.0
2017-08-25T02:03:42.224Z,81.0
2017-08-25T02:04:43.596Z,81.9
2017-08-25T02:05:44.970Z,81.6
2017-08-25T02:06:46.343Z,81.2
2017-08-25T02:07:47.712Z,81.8
2017-08-25T02:08:49.085Z,81.5
2017-08-25T02:09:50.458Z,81.5
2017-08-25T02:10:51.832Z,81.5
2017-08-25T02:11:53.223Z,81.7
2017-08-25T02:12:54.584Z,81.7
2017-08-25T02:13:55.956Z,81.6
2017-08-25T02:14:57.329Z,81.8
2017-08-25T02:15:58.702Z,81.2
2017-08-25T02:17:00.075Z,81.2
2017-08-25T02:18:01.475Z,81.2
2017-08-25T02:19:02.852Z,81.4
2017-08-25T02:20:04.224Z,82.1
2017-08-25T02:21:05.598Z,81.4
2017-08-25T02:22:06.967Z,81.6
2017-08-25T02:23:08.344Z,81.4
2017-08-25T02:24:09.718Z,81.6
2017-08-25T02:25:11.092Z,81.4
2017-08-25T02:26:12.467Z,81.5
2017-08-25T02:27:13.843Z,81.4
2017-08-25T02:28:15.231Z,81.0
2017-08-25T02:29:16.591Z,81.2
2017-08-25T02:30:17.959Z,81.3
2017-08-25T02:31:19.330Z,81.6
2017-08-25T02:32:20.703Z,81.2
2017-08-25T02:33:22.079Z,81.3
2017-08-25T02:34:23.451Z,82.2
2017-08-25T02:35:24.830Z,81.6
2017-08-25T02:36:26.193Z,81.5
2017-08-25T02:37:27.568Z,81.2
2017-08-25T02:38:28.942Z,81.0
2017-08-25T02:39:30.318Z,80.6
2017-08-25T02:40:31.688Z,80.9
2017-08-25T02:41:33.064Z,80.7
2017-08-25T02:42:34.436Z,81.3
2017-08-25T02:43:35.809Z,81.6
2017-08-25T02:44:37.181Z,81.0
2017-08-25T02:45:38.554Z,81.3
2017-08-25T02:46:39.929Z,82.0
2017-08-25T02:47:41.312Z,81.9
2017-08-25T02:48:42.686Z,81.4
2017-08-25T02:49:44.058Z,81.1
2017-08-25T02:50:45.429Z,81.0
2017-08-25T02:51:46.802Z,81.6
2017-08-25T02:52:48.177Z,81.1
2017-08-25T02:53:49.552Z,80.8
2017-08-25T02:54:50.926Z,80.6
2017-08-25T02:55:52.299Z,81.3
2017-08-25T02:56:53.670Z,81.6
2017-08-25T02:57:55.063Z,80.9
2017-08-25T02:58:56.436Z,81.8
2017-08-25T02:59:57.806Z,81.4
2017-08-25T03:00:59.198Z,81.4
2017-08-25T03:02:00.559Z,81.6
2017-08-25T03:03:01.936Z,81.8
2017-08-25T03:04:03.307Z,80.9
2017-08-25T03:05:04.693Z,81.6
2017-08-25T03:06:06.055Z,81.1
2017-08-25T03:07:07.431Z,81.0
2017-08-25T03:08:08.804Z,80.8
2017-08-25T03:09:10.186Z,81.3
2017-08-25T03:10:11.559Z,80.9
2017-08-25T03:11:12.932Z,81.6
2017-08-25T03:12:14.310Z,81.7
2017-08-25T03:13:15.697Z,81.4
2017-08-25T03:14:17.076Z,81.4
2017-08-25T03:15:18.447Z,81.4
2017-08-25T03:16:19.825Z,81.1
2017-08-25T03:17:21.194Z,81.4
2017-08-25T03:18:22.566Z,81.0
2017-08-25T03:19:23.942Z,82.2
2017-08-25T03:20:25.314Z,81.7
2017-08-25T03:21:26.711Z,82.1
2017-08-25T03:22:28.065Z,81.4
2017-08-25T03:23:29.443Z,81.8
2017-08-25T03:24:30.816Z,82.1
2017-08-25T03:25:32.188Z,82.1
2017-08-25T03:26:33.560Z,82.3
2017-08-25T03:27:34.935Z,82.2
2017-08-25T03:28:36.306Z,82.3
2017-08-25T03:29:37.683Z,82.2
2017-08-25T03:30:39.056Z,82.6
2017-08-25T03:31:40.430Z,83.0
2017-08-25T03:32:41.798Z,82.2
2017-08-25T03:33:43.171Z,83.5
2017-08-25T03:34:44.544Z,83.2
2017-08-25T03:35:45.916Z,83.2
2017-08-25T03:36:47.289Z,83.2
2017-08-25T03:37:48.663Z,83.3
2017-08-25T03:38:50.038Z,83.2
2017-08-25T03:39:51.413Z,83.4
2017-08-25T03:40:52.784Z,83.3
2017-08-25T03:41:54.156Z,83.8
2017-08-25T03:42:55.535Z,83.5
2017-08-25T03:43:56.903Z,83.3
2017-08-25T03:44:58.277Z,83.1
2017-08-25T03:45:59.649Z,83.1
2017-08-25T03:47:01.020Z,83.1
2017-08-25T03:48:02.395Z,83.1
2017-08-25T03:49:03.775Z,83.4
2017-08-25T03:50:05.135Z,83.1
2017-08-25T03:51:06.511Z,83.2
2017-08-25T03:52:07.884Z,82.9
2017-08-25T03:53:09.258Z,83.3
2017-08-25T03:54:10.635Z,83.3
2017-08-25T03:55:12.012Z,83.1
2017-08-25T03:56:13.379Z,83.2
2017-08-25T03:57:14.753Z,83.1
2017-08-25T03:58:16.124Z,83.3
2017-08-25T03:59:17.494Z,83.0
2017-08-25T04:00:18.869Z,83.3
2017-08-25T04:01:20.239Z,83.4
2017-08-25T04:02:21.613Z,83.4
2017-08-25T04:03:22.987Z,83.3
2017-08-25T04:04:24.362Z,83.7
2017-08-25T04:05:25.732Z,83.1
2017-08-25T04:06:27.105Z,83.1
2017-08-25T04:07:28.474Z,83.1
2017-08-25T04:08:29.853Z,83.0
2017-08-25T04:09:31.220Z,83.4
2017-08-25T04:10:32.596Z,83.3
2017-08-25T04:11:33.969Z,83.6
2017-08-25T04:12:35.348Z,83.5
2017-08-25T04:13:36.719Z,83.0
2017-08-25T04:14:38.092Z,83.4
2017-08-25T04:15:39.467Z,83.4
2017-08-25T04:16:40.846Z,83.3
2017-08-25T04:17:42.219Z,83.2
2017-08-25T04:18:43.613Z,83.9
2017-08-25T04:19:44.968Z,84.2
2017-08-25T04:20:46.344Z,83.4
2017-08-25T04:21:47.716Z,83.8
2017-08-25T04:22:49.091Z,84.6
2017-08-25T04:23:50.468Z,84.8
2017-08-25T04:24:51.834Z,84.6
2017-08-25T04:25:53.208Z,84.5
2017-08-25T04:26:54.579Z,85.1
2017-08-25T04:27:55.956Z,84.8
2017-08-25T04:28:57.330Z,84.8
2017-08-25T04:29:58.705Z,84.5
2017-08-25T04:31:00.077Z,85.0
2017-08-25T04:32:01.453Z,85.0
2017-08-25T04:33:02.825Z,85.0
2017-08-25T04:34:04.199Z,85.2
2017-08-25T04:35:05.582Z,85.0
2017-08-25T04:36:06.969Z,84.7
2017-08-25T04:37:08.333Z,84.4
2017-08-25T04:38:09.708Z,85.0
2017-08-25T04:39:11.084Z,84.2
2017-08-25T04:40:12.458Z,84.2
2017-08-25T04:41:13.835Z,84.4
2017-08-25T04:42:15.211Z,84.4
2017-08-25T04:43:16.583Z,84.4
2017-08-25T04:44:17.960Z,84.3
2017-08-25T04:45:19.334Z,84.2
2017-08-25T04:46:20.713Z,84.3
2017-08-25T04:47:22.095Z,83.4
2017-08-25T04:48:23.462Z,83.7
2017-08-25T04:49:24.846Z,83.6
2017-08-25T04:50:26.231Z,83.6
2017-08-25T04:51:27.604Z,83.4
2017-08-25T04:52:28.979Z,83.7
2017-08-25T04:53:30.360Z,83.4
2017-08-25T04:54:31.737Z,83.5
2017-08-25T04:55:33.109Z,83.8
2017-08-25T04:56:34.484Z,83.5
2017-08-25T04:57:35.861Z,83.7
2017-08-25T04:58:37.236Z,83.3
2017-08-25T04:59:38.618Z,83.0
2017-08-25T05:00:39.993Z,83.5
2017-08-25T05:01:41.377Z,83.4
2017-08-25T05:02:42.756Z,82.3
2017-08-25T05:03:44.132Z,82.7
2017-08-25T05:04:45.508Z,81.8
2017-08-25T05:05:46.892Z,82.2
2017-08-25T05:06:48.262Z,82.1
2017-08-25T05:07:49.638Z,81.9
2017-08-25T05:08:51.021Z,81.2
2017-08-25T05:09:52.394Z,81.9
2017-08-25T05:10:53.779Z,81.3
2017-08-25T05:11:55.158Z,81.7
2017-08-25T05:12:56.537Z,80.7
2017-08-25T05:13:57.915Z,80.7
2017-08-25T05:14:59.297Z,80.2
2017-08-25T05:16:00.683Z,80.0
2017-08-25T05:17:02.060Z,79.4
2017-08-25T05:18:03.442Z,79.0
2017-08-25T05:19:04.821Z,78.6
2017-08-25T05:20:06.244Z,78.2
2017-08-25T05:21:07.618Z,77.0
2017-08-25T05:22:08.998Z,76.7
2017-08-25T05:23:10.371Z,75.9
2017-08-25T05:24:11.760Z,75.0
2017-08-25T05:25:13.141Z,75.3
2017-08-25T05:26:14.519Z,75.5
2017-08-25T05:27:15.899Z,75.1
2017-08-25T05:28:17.277Z,74.1
2017-08-25T05:29:18.655Z,74.0
2017-08-25T05:30:20.038Z,73.6
2017-08-25T05:31:21.426Z,73.2
2017-08-25T05:32:22.808Z,72.7
2017-08-25T05:33:24.183Z,72.3
2017-08-25T05:34:25.570Z,71.9
2017-08-25T05:35:26.967Z,70.8
2017-08-25T05:36:28.336Z,70.8
2017-08-25T05:37:29.715Z,70.3
2017-08-25T05:38:31.105Z,69.5
2017-08-25T05:39:32.485Z,69.6
2017-08-25T05:40:33.866Z,70.1
2017-08-25T05:41:35.248Z,70.2
2017-08-25T05:42:36.645Z,70.9
2017-08-25T05:43:38.026Z,70.6
2017-08-25T05:44:39.404Z,70.9
2017-08-25T05:45:40.799Z,70.6
2017-08-25T05:46:42.177Z,70.3
2017-08-25T05:47:43.564Z,70.3
2017-08-25T05:48:44.945Z,70.1
2017-08-25T05:49:46.341Z,70.2
2017-08-25T05:50:47.723Z,70.5
2017-08-25T05:51:49.101Z,69.0
2017-08-25T05:52:50.512Z,69.7
2017-08-25T05:53:51.923Z,69.4
2017-08-25T05:54:53.302Z,69.9
2017-08-25T05:55:54.684Z,70.5
2017-08-25T05:56:56.063Z,70.0
2017-08-25T05:57:57.450Z,70.7
2017-08-25T05:58:58.826Z,70.8
2017-08-25T06:00:00.208Z,70.6
2017-08-25T06:01:01.591Z,71.0
2017-08-25T06:02:02.970Z,70.2
2017-08-25T06:03:04.354Z,70.3
2017-08-25T06:04:05.741Z,71.3
2017-08-25T06:05:07.115Z,71.3
2017-08-25T06:06:08.494Z,71.6
2017-08-25T06:07:09.876Z,71.6
2017-08-25T06:08:11.262Z,72.0
2017-08-25T06:09:12.646Z,72.6
2017-08-25T06:10:14.028Z,72.8
2017-08-25T06:11:15.405Z,71.0
2017-08-25T06:12:16.790Z,70.7
2017-08-25T06:13:18.165Z,71.1
2017-08-25T06:14:19.545Z,71.9
2017-08-25T06:15:20.929Z,71.8
2017-08-25T06:16:22.319Z,70.8
2017-08-25T06:17:23.697Z,70.5
2017-08-25T06:18:25.084Z,69.6
2017-08-25T06:19:26.476Z,70.2
2017-08-25T06:20:27.844Z,70.2
2017-08-25T06:21:29.226Z,70.1
2017-08-25T06:22:30.620Z,69.6
2017-08-25T06:23:31.992Z,69.9
2017-08-25T06:24:33.371Z,68.8
2017-08-25T06:25:34.754Z,68.9
2017-08-25T06:26:36.141Z,69.7
2017-08-25T06:27:37.519Z,70.2
2017-08-25T06:28:38.901Z,69.3
2017-08-25T06:29:40.287Z,68.5
2017-08-25T06:30:41.667Z,68.6
2017-08-25T06:31:43.049Z,68.0
2017-08-25T06:32:44.431Z,67.7
2017-08-25T06:33:45.820Z,67.3
2017-08-25T06:34:47.201Z,67.4
2017-08-25T06:35:48.583Z,68.8
2017-08-25T06:36:49.964Z,68.0
2017-08-25T06:37:51.346Z,67.8
2017-08-25T06:38:52.726Z,67.1
2017-08-25T06:39:54.108Z,67.3
2017-08-25T06:40:55.632Z,67.3
2017-08-25T06:41:56.995Z,67.5
2017-08-25T06:42:58.385Z,67.5
2017-08-25T06:43:59.762Z,66.6
2017-08-25T06:45:01.147Z,65.3
2017-08-25T06:46:02.527Z,64.8
2017-08-25T06:47:03.914Z,64.0
2017-08-25T06:48:05.292Z,63.8
2017-08-25T06:49:06.679Z,63.7
2017-08-25T06:50:08.079Z,64.9
2017-08-25T06:51:09.450Z,64.9
2017-08-25T06:52:10.831Z,65.5
2017-08-25T06:53:12.214Z,64.3
2017-08-25T06:54:13.600Z,63.1
2017-08-25T06:55:14.979Z,62.8
2017-08-25T06:56:16.381Z,63.2
2017-08-25T06:57:17.760Z,62.5
2017-08-25T06:58:19.169Z,62.0
2017-08-25T06:59:20.575Z,60.7
2017-08-25T07:00:21.961Z,59.6
2017-08-25T07:01:23.343Z,58.9
2017-08-25T07:02:24.729Z,58.4
2017-08-25T07:03:26.111Z,58.1
2017-08-25T07:04:27.499Z,58.5
2017-08-25T07:05:28.885Z,59.4
2017-08-25T07:06:30.282Z,57.1
2017-08-25T07:07:31.672Z,57.7
2017-08-25T07:08:33.057Z,56.5
2017-08-25T07:09:34.442Z,56.3
2017-08-25T07:10:35.880Z,57.4
2017-08-25T07:11:37.268Z,58.0
2017-08-25T07:12:38.656Z,55.5
2017-08-25T07:13:40.045Z,55.0
2017-08-25T07:14:41.432Z,55.8
2017-08-25T07:15:42.817Z,55.5
2017-08-25T07:16:44.202Z,55.3
2017-08-25T07:17:45.589Z,55.8
2017-08-25T07:18:46.975Z,54.6
2017-08-25T07:19:48.359Z,54.5
2017-08-25T07:20:49.751Z,51.3
2017-08-25T07:21:51.140Z,51.4
2017-08-25T07:22:52.528Z,51.3
2017-08-25T07:23:53.916Z,50.3
2017-08-25T07:24:55.302Z,50.5
2017-08-25T07:25:56.691Z,51.0
2017-08-25T07:26:58.089Z,51.3
2017-08-25T07:27:59.463Z,49.2
2017-08-25T07:29:00.857Z,49.4
2017-08-25T07:30:02.247Z,49.3
2017-08-25T07:31:03.635Z,50.0
2017-08-25T07:32:05.039Z,48.0
2017-08-25T07:33:06.427Z,46.5
2017-08-25T07:34:07.820Z,46.4
2017-08-25T07:35:09.211Z,47.5
2017-08-25T07:36:10.601Z,46.4
2017-08-25T07:37:11.986Z,47.4
2017-08-25T07:38:13.373Z,47.2
2017-08-25T07:39:14.764Z,45.0
2017-08-25T07:40:16.154Z,45.1
2017-08-25T07:41:17.549Z,44.0
2017-08-25T07:42:18.941Z,43.3
2017-08-25T07:43:20.329Z,44.2
2017-08-25T07:44:21.717Z,45.7
2017-08-25T07:45:23.113Z,46.4
2017-08-25T07:46:24.504Z,44.5
2017-08-25T07:47:25.899Z,44.3
2017-08-25T07:48:27.291Z,44.0
2017-08-25T07:49:28.681Z,42.5
2017-08-25T07:50:30.071Z,42.8
2017-08-25T07:51:31.460Z,43.0
2017-08-25T07:52:32.849Z,42.2
2017-08-25T07:53:34.241Z,41.5
2017-08-25T07:54:35.633Z,41.2
2017-08-25T07:55:37.024Z,42.3
2017-08-25T07:56:38.416Z,42.9
2017-08-25T07:57:39.805Z,42.5
2017-08-25T07:58:41.196Z,41.2
2017-08-25T07:59:42.585Z,40.8
2017-08-25T08:00:43.978Z,39.7
2017-08-25T08:01:45.371Z,41.0
2017-08-25T08:02:46.764Z,39.5
2017-08-25T08:03:48.163Z,38.6
2017-08-25T08:04:49.555Z,37.8
2017-08-25T08:05:50.950Z,37.7
2017-08-25T08:06:52.342Z,38.0
2017-08-25T08:07:53.734Z,38.9
2017-08-25T08:08:55.130Z,38.2
2017-08-25T08:09:56.524Z,38.1
2017-08-25T08:10:57.936Z,38.5
2017-08-25T08:11:59.322Z,38.2
2017-08-25T08:13:00.718Z,39.1
2017-08-25T08:14:02.097Z,39.8
2017-08-25T08:15:03.487Z,40.4
2017-08-25T08:16:04.879Z,39.3
2017-08-25T08:17:06.319Z,40.9
2017-08-25T08:18:07.715Z,41.0
2017-08-25T08:19:09.105Z,40.2
2017-08-25T08:20:10.512Z,39.6
2017-08-25T08:21:11.888Z,39.6
2017-08-25T08:22:13.281Z,38.9
2017-08-25T08:23:14.671Z,39.7
2017-08-25T08:24:16.144Z,40.5
2017-08-25T08:25:17.534Z,37.6
2017-08-25T08:26:18.923Z,36.8
2017-08-25T08:27:20.313Z,37.2
2017-08-25T08:28:21.720Z,34.8
2017-08-25T08:29:23.115Z,35.4
2017-08-25T08:30:24.506Z,35.7
2017-08-25T08:31:25.893Z,35.4
2017-08-25T08:32:27.286Z,34.7
2017-08-25T08:33:28.677Z,33.8
2017-08-25T08:34:30.066Z,34.4
2017-08-25T08:35:31.469Z,34.8
2017-08-25T08:36:32.864Z,33.8
2017-08-25T08:37:34.253Z,31.5
2017-08-25T08:38:35.660Z,31.3
2017-08-25T08:39:37.059Z,32.8
2017-08-25T08:40:38.450Z,32.8
2017-08-25T08:41:39.842Z,33.1
2017-08-25T08:42:41.253Z,32.7
2017-08-25T08:43:42.656Z,33.9
2017-08-25T08:44:44.045Z,34.1
2017-08-25T08:45:45.459Z,32.1
2017-08-25T08:47:27.818Z,32.5
2017-08-25T08:48:29.215Z,31.4
2017-08-25T08:49:30.628Z,32.2
2017-08-25T08:50:32.019Z,31.5
2017-08-25T08:51:33.412Z,32.3
2017-08-25T08:52:34.802Z,33.0
2017-08-25T08:53:36.199Z,32.9
2017-08-25T08:54:37.590Z,32.1
2017-08-25T08:55:38.980Z,29.7
2017-08-25T08:56:40.370Z,31.2
2017-08-25T08:57:41.761Z,31.4
2017-08-25T08:58:43.154Z,30.1
2017-08-25T08:59:44.546Z,31.6
2017-08-25T09:00:45.943Z,31.5
2017-08-25T09:01:47.335Z,30.1
2017-08-25T09:02:48.726Z,31.6
2017-08-25T09:03:50.116Z,30.4
2017-08-25T09:04:51.525Z,30.5
2017-08-25T09:05:52.915Z,31.9
2017-08-25T09:06:54.307Z,31.7
2017-08-25T09:07:55.701Z,30.5
2017-08-25T09:08:57.093Z,30.0
2017-08-25T09:09:58.485Z,30.4
2017-08-25T09:10:59.877Z,28.8
2017-08-25T09:12:01.279Z,29.2
2017-08-25T09:13:02.672Z,28.9
2017-08-25T09:14:04.066Z,28.8
2017-08-25T09:15:05.460Z,28.8
2017-08-25T09:16:06.862Z,29.4
2017-08-25T09:17:08.254Z,28.6
2017-08-25T09:18:09.648Z,28.9
2017-08-25T09:19:51.050Z,29.3
2017-08-25T09:20:52.459Z,28.4
2017-08-25T09:21:53.835Z,32.9
2017-08-25T09:22:55.229Z,31.4
2017-08-25T09:23:56.632Z,31.5
2017-08-25T09:24:58.027Z,30.5
2017-08-25T09:25:59.425Z,31.2
2017-08-25T09:27:00.823Z,30.0
2017-08-25T09:28:02.217Z,31.0
2017-08-25T09:29:03.614Z,30.5
2017-08-25T09:30:04.994Z,30.1
2017-08-25T09:31:06.393Z,31.9
2017-08-25T09:32:07.784Z,30.9
2017-08-25T09:33:09.176Z,28.2
2017-08-25T09:34:10.571Z,27.4
2017-08-25T09:35:51.979Z,27.7
2017-08-25T09:36:53.367Z,28.0
2017-08-25T09:38:15.383Z,27.9
2017-08-25T09:39:16.776Z,28.0
2017-08-25T09:40:39.793Z,28.9
2017-08-25T09:41:41.197Z,28.4
2017-08-25T09:42:42.590Z,27.0
2017-08-25T09:43:43.985Z,28.6
2017-08-25T09:44:45.379Z,28.1
2017-08-25T09:45:46.774Z,27.3
2017-08-25T09:46:48.173Z,25.9
2017-08-25T09:47:49.566Z,25.8
2017-08-25T09:48:50.959Z,28.6
2017-08-25T09:49:52.356Z,25.8
2017-08-25T09:51:33.754Z,26.0
2017-08-25T09:52:35.148Z,25.7
2017-08-25T09:53:57.169Z,25.6
2017-08-25T09:54:58.565Z,26.3
2017-08-25T09:55:59.959Z,24.2
2017-08-25T09:57:01.379Z,23.8
2017-08-25T09:58:02.775Z,24.5
2017-08-25T09:59:04.169Z,24.9
2017-08-25T10:00:05.568Z,27.1
2017-08-25T10:01:06.968Z,24.5
2017-08-25T10:02:08.363Z,24.6
2017-08-25T10:03:09.762Z,24.9
2017-08-25T10:04:11.162Z,22.9
2017-08-25T10:05:12.561Z,25.0
2017-08-25T10:06:13.961Z,23.4
2017-08-25T10:07:56.379Z,24.0
2017-08-25T10:08:57.779Z,23.8
2017-08-25T10:09:59.174Z,23.4
2017-08-25T10:11:00.574Z,21.4
2017-08-25T10:12:01.969Z,22.8
2017-08-25T10:13:03.368Z,23.4
2017-08-25T10:14:04.763Z,23.6
2017-08-25T10:15:06.165Z,22.9
2017-08-25T10:16:07.565Z,23.6
2017-08-25T10:17:08.961Z,26.5
2017-08-25T10:18:10.360Z,23.9
2017-08-25T10:19:11.784Z,22.9
2017-08-25T10:20:13.180Z,24.3
2017-08-25T10:21:14.582Z,24.4
2017-08-25T10:22:16.000Z,24.7
2017-08-25T10:23:17.409Z,25.0
2017-08-25T10:24:18.801Z,25.0
2017-08-25T10:25:20.197Z,23.8
2017-08-25T10:26:21.593Z,24.3
2017-08-25T10:27:22.993Z,25.9
2017-08-25T10:28:24.391Z,25.9
2017-08-25T10:29:25.789Z,26.7
2017-08-25T10:30:27.191Z,24.4
2017-08-25T10:31:28.596Z,23.9
2017-08-25T10:32:29.991Z,22.8
2017-08-25T10:33:31.390Z,23.9
2017-08-25T10:34:32.789Z,22.8
2017-08-25T10:35:34.187Z,23.9
2017-08-25T10:36:35.586Z,23.1
2017-08-25T10:37:36.983Z,23.8
2017-08-25T10:38:38.403Z,24.2
2017-08-25T10:39:39.804Z,22.3
2017-08-25T10:40:41.210Z,22.8
2017-08-25T10:41:42.609Z,22.7
2017-08-25T10:42:44.007Z,23.8
2017-08-25T10:43:45.408Z,24.3
2017-08-25T10:44:46.806Z,24.9
2017-08-25T10:45:48.202Z,24.1
2017-08-25T10:46:49.603Z,24.8
2017-08-25T10:47:51.018Z,23.0
2017-08-25T10:48:52.404Z,24.2
2017-08-25T10:49:53.806Z,23.6
2017-08-25T10:50:55.208Z,23.5
2017-08-25T10:51:56.606Z,24.1
2017-08-25T10:52:58.007Z,23.6
2017-08-25T10:53:59.405Z,23.8
2017-08-25T10:55:00.817Z,23.0
2017-08-25T10:56:43.200Z,22.3
2017-08-25T10:57:44.599Z,22.8
2017-08-25T10:58:45.992Z,22.9
2017-08-25T10:59:47.392Z,22.0
2017-08-25T11:00:48.794Z,24.1
2017-08-25T11:01:50.193Z,22.1
2017-08-25T11:02:51.604Z,22.8
2017-08-25T11:03:53.003Z,22.1
2017-08-25T11:04:54.399Z,22.6
2017-08-25T11:05:55.796Z,21.3
2017-08-25T11:06:57.196Z,22.2
2017-08-25T11:07:58.594Z,22.5
2017-08-25T11:08:59.993Z,22.1
2017-08-25T11:10:01.396Z,20.2
2017-08-25T11:11:02.798Z,20.3
2017-08-25T11:12:04.192Z,22.2
2017-08-25T11:13:05.597Z,22.7
2017-08-25T11:14:06.995Z,22.7
2017-08-25T11:15:08.395Z,22.1
2017-08-25T11:16:09.795Z,22.7
2017-08-25T11:17:11.196Z,23.3
2017-08-25T11:18:12.603Z,24.1
2017-08-25T11:19:14.004Z,23.9
2017-08-25T11:20:15.399Z,22.7
2017-08-25T11:21:16.826Z,22.7
2017-08-25T11:22:18.222Z,23.9
2017-08-25T11:23:19.625Z,23.5
2017-08-25T11:24:21.030Z,22.6
2017-08-25T11:25:22.432Z,22.7
2017-08-25T11:26:23.838Z,22.9
2017-08-25T11:27:25.231Z,22.6
2017-08-25T11:28:26.634Z,22.7
2017-08-25T11:29:28.035Z,22.7
2017-08-25T11:30:29.453Z,21.8
2017-08-25T11:31:30.830Z,22.5
2017-08-25T11:32:32.233Z,21.3
2017-08-25T11:33:33.631Z,22.0
2017-08-25T11:34:35.031Z,21.6
2017-08-25T11:35:36.438Z,22.1
2017-08-25T11:36:37.840Z,21.4
2017-08-25T11:37:39.237Z,20.9
2017-08-25T11:38:40.638Z,22.3
2017-08-25T11:39:42.040Z,21.5
2017-08-25T11:40:43.437Z,21.0
2017-08-25T11:41:44.837Z,21.5
2017-08-25T11:42:46.238Z,22.4
2017-08-25T11:43:47.642Z,21.5
2017-08-25T11:44:49.048Z,21.1
2017-08-25T11:45:50.450Z,21.1
2017-08-25T11:46:51.871Z,20.6
2017-08-25T11:47:53.270Z,20.2
2017-08-25T11:48:54.666Z,21.1
2017-08-25T11:49:56.067Z,20.6
2017-08-25T11:50:57.467Z,21.6
2017-08-25T11:51:58.868Z,21.3
2017-08-25T11:53:00.267Z,22.2
2017-08-25T11:54:01.682Z,21.2
2017-08-25T11:55:03.084Z,21.3
2017-08-25T11:56:04.480Z,21.1
2017-08-25T11:57:05.893Z,20.9
2017-08-25T11:58:07.294Z,22.5
2017-08-25T11:59:08.695Z,22.8
2017-08-25T12:00:10.097Z,22.1
2017-08-25T12:01:11.501Z,22.3
2017-08-25T12:02:12.899Z,22.7
2017-08-25T12:03:14.298Z,22.0
2017-08-25T12:04:15.698Z,21.5
2017-08-25T12:05:17.095Z,22.8
2017-08-25T12:06:18.495Z,21.7
2017-08-25T12:07:19.895Z,19.8
2017-08-25T12:08:21.299Z,21.7
2017-08-25T12:09:22.698Z,20.1
2017-08-25T12:10:24.096Z,21.5
2017-08-25T12:11:25.501Z,22.3
2017-08-25T12:12:26.901Z,20.9
2017-08-25T12:13:28.307Z,21.2
2017-08-25T12:14:29.703Z,21.9
2017-08-25T12:15:31.101Z,22.0
2017-08-25T12:16:32.503Z,21.0
2017-08-25T12:17:33.903Z,20.8
2017-08-25T12:18:35.304Z,20.2
2017-08-25T12:19:36.706Z,21.3
2017-08-25T12:20:38.108Z,21.4
2017-08-25T12:21:39.520Z,20.2
2017-08-25T12:22:40.927Z,20.1
2017-08-25T12:23:42.327Z,21.1
2017-08-25T12:24:43.722Z,21.5
2017-08-25T12:25:45.127Z,22.2
2017-08-25T12:26:46.552Z,21.0
2017-08-25T12:27:47.950Z,21.6
2017-08-25T12:28:49.361Z,20.7
2017-08-25T12:29:50.755Z,22.4
2017-08-25T12:30:52.154Z,21.3
2017-08-25T12:31:53.555Z,21.3
2017-08-25T12:32:54.955Z,21.3
2017-08-25T12:33:56.355Z,20.7
2017-08-25T12:34:57.754Z,21.3
2017-08-25T12:35:59.156Z,21.4
2017-08-25T12:37:00.555Z,22.7
2017-08-25T12:38:01.952Z,20.8
2017-08-25T12:39:03.360Z,20.2
2017-08-25T12:40:04.757Z,19.9
2017-08-25T12:41:06.161Z,19.2
2017-08-25T12:42:07.558Z,20.8
2017-08-25T12:43:08.966Z,20.0
2017-08-25T12:44:10.359Z,19.8
2017-08-25T12:45:11.761Z,20.6
2017-08-25T12:46:13.158Z,20.7
2017-08-25T12:47:14.558Z,21.1
2017-08-25T12:48:15.957Z,20.0
2017-08-25T12:49:17.354Z,19.9
2017-08-25T12:50:18.756Z,20.0
2017-08-25T12:51:20.155Z,19.4
2017-08-25T12:52:21.553Z,20.4
2017-08-25T12:53:22.953Z,20.5
2017-08-25T12:54:24.351Z,20.5
2017-08-25T12:55:25.752Z,21.1
2017-08-25T12:56:27.154Z,20.4
2017-08-25T12:57:28.555Z,20.0
2017-08-25T12:58:29.957Z,19.8
2017-08-25T12:59:31.360Z,20.9
2017-08-25T13:00:32.754Z,21.1
2017-08-25T13:01:34.151Z,20.8
2017-08-25T13:02:35.556Z,19.8
2017-08-25T13:03:36.952Z,21.3
2017-08-25T13:04:38.356Z,20.2
2017-08-25T13:05:39.754Z,20.8
2017-08-25T13:06:41.149Z,22.7
2017-08-25T13:07:42.547Z,22.2
2017-08-25T13:08:43.946Z,21.1
2017-08-25T13:09:45.344Z,22.3
2017-08-25T13:10:46.742Z,22.5
2017-08-25T13:11:48.143Z,23.5
2017-08-25T13:12:49.603Z,23.4
2017-08-25T13:13:50.999Z,22.2
2017-08-25T13:14:52.395Z,22.5
2017-08-25T13:15:53.793Z,22.9
2017-08-25T13:16:55.193Z,22.8
2017-08-25T13:17:56.590Z,22.6
2017-08-25T13:18:57.989Z,22.8
2017-08-25T13:19:59.387Z,23.9
2017-08-25T13:21:00.782Z,23.0
2017-08-25T13:22:02.176Z,21.5
2017-08-25T13:23:03.575Z,21.5
2017-08-25T13:24:04.973Z,22.4
2017-08-25T13:25:06.373Z,22.5
2017-08-25T13:26:07.772Z,24.2
2017-08-25T13:27:09.171Z,22.6
2017-08-25T13:28:10.565Z,23.1
2017-08-25T13:29:11.964Z,23.9
2017-08-25T13:30:13.358Z,24.0
2017-08-25T13:31:14.756Z,23.3
2017-08-25T13:32:16.156Z,23.8
2017-08-25T13:33:58.549Z,23.7
2017-08-25T13:34:59.944Z,25.0
2017-08-25T13:36:01.342Z,23.5
2017-08-25T13:37:02.738Z,22.7
2017-08-25T13:38:04.140Z,22.7
2017-08-25T13:39:05.541Z,22.8
2017-08-25T13:40:06.941Z,23.4
2017-08-25T13:41:08.328Z,23.7
2017-08-25T13:42:09.731Z,25.0
2017-08-25T13:43:11.125Z,23.7